Sumise Maru No.32 — JD3832 — position and weather

sailwx.info

Track history (hours):
 
Tides and Currents Weather Stations Pressure Air Temp Water Temp Dewpoint Dewpoint Depression Visibility Wind Speed Wind Dir Waves Ship Positions

Sumise Maru No.32

Last reported at 2018-Jun-21 07:36 UTC. Time now 2018-Jun-21 23:59 UTC.
Position N 34°42' E 134°32'.

Length 78 m; draft 4.3 m.

Type: Cargo ship. MMSI: 431006221.

Date/timePositionNaut miles runAvg speedWind from/ knotsBaromVisibWave heightAir tempDewpointWater temp
2018-Jun-21 07:36N 34°42' E 134°32'212.8
2018-Jun-21 07:29N 34°42' E 134°34'612.9
2018-Jun-21 07:00N 34°40' E 134°41'713.6
2018-Jun-21 06:28N 34°39' E 134°49'714.0
2018-Jun-21 05:59N 34°38' E 134°58'714.0
2018-Jun-21 05:30N 34°36' E 135°06'713.1
2018-Jun-21 05:00N 34°36' E 135°14'611.3
2018-Jun-21 04:30N 34°41' E 135°18'2 3.0
2018-Jun-21 03:52N 34°42' E 135°16'0 0.0
2018-Jun-21 03:28N 34°42' E 135°16'0 0.0
2018-Jun-21 02:58N 34°42' E 135°16'0 0.0
2018-Jun-21 02:28N 34°42' E 135°16'0 0.0
2018-Jun-21 01:58N 34°42' E 135°16'0 0.0
2018-Jun-21 01:28N 34°42' E 135°16'0 0.0
2018-Jun-21 00:52N 34°42' E 135°16'0 0.0
2018-Jun-21 00:28N 34°42' E 135°16'0 0.0
2018-Jun-20 23:52N 34°42' E 135°16'0 0.0
2018-Jun-20 23:28N 34°42' E 135°16'0 0.0
2018-Jun-20 23:00N 34°42' E 135°16'1 2.0
2018-Jun-20 22:30N 34°42' E 135°17'4 8.9
2018-Jun-20 22:00N 34°38' E 135°18'0 0.2
2018-Jun-20 21:30N 34°37' E 135°18'0 0.0
2018-Jun-20 21:00N 34°37' E 135°18'0 0.0
2018-Jun-20 20:30N 34°37' E 135°18'0 0.0
2018-Jun-20 19:48N 34°37' E 135°18'0 0.2
2018-Jun-20 19:30N 34°37' E 135°18'0 0.0
2018-Jun-20 19:00N 34°37' E 135°18'0 0.1
2018-Jun-20 18:30N 34°37' E 135°18'0 0.0
2018-Jun-20 18:00N 34°37' E 135°18'0 0.0
2018-Jun-20 17:30N 34°37' E 135°18'0 0.0
2018-Jun-20 17:00N 34°37' E 135°18'0 0.0
2018-Jun-20 16:27N 34°37' E 135°18'0 0.0
2018-Jun-20 16:00N 34°37' E 135°18'0 0.0
2018-Jun-20 15:30N 34°37' E 135°18'0 0.4
2018-Jun-20 15:00N 34°37' E 135°18'611.5
2018-Jun-20 14:30N 34°35' E 135°11'612.3
2018-Jun-20 14:00N 34°35' E 135°04'711.3
2018-Jun-20 13:25N 34°36' E 134°56'1312.5
2018-Jun-20 12:21N 34°40' E 134°40'12 0.6
2018-Jun-19 16:04N 34°42' E 134°26'113.1
2018-Jun-19 15:58N 34°42' E 134°28'613.3
2018-Jun-19 15:30N 34°41' E 134°35'713.5
2018-Jun-19 14:58N 34°40' E 134°44'714.3
2018-Jun-19 14:30N 34°38' E 134°52'815.0
2018-Jun-19 13:59N 34°37' E 135°01'612.2
2018-Jun-19 13:30N 34°32' E 135°04'714.0
2018-Jun-19 13:00N 34°25' E 135°02'713.8
2018-Jun-19 12:30N 34°19' E 135°00'612.4
2018-Jun-19 12:00N 34°13' E 134°60'713.2
2018-Jun-19 11:30N 34°06' E 135°01'713.6
2018-Jun-19 11:00N 33°59' E 135°02'  
2018-Jun-16 16:23N 35°04' E 139°37'612.9
2018-Jun-16 15:57N 35°08' E 139°42'613.5
2018-Jun-16 15:30N 35°13' E 139°46'713.3
2018-Jun-16 15:00N 35°19' E 139°43'612.9
2018-Jun-16 14:30N 35°25' E 139°43'4 8.0
2018-Jun-16 14:01N 35°29' E 139°40'0 0.1
2018-Jun-16 13:29N 35°29' E 139°40'0 0.0
2018-Jun-16 12:59N 35°29' E 139°40'0 0.0
2018-Jun-16 12:29N 35°29' E 139°40'0 0.0
2018-Jun-16 11:59N 35°29' E 139°40'0 0.0
2018-Jun-16 11:29N 35°29' E 139°40'0 0.0
2018-Jun-16 10:59N 35°29' E 139°40'0 0.0
2018-Jun-16 10:29N 35°29' E 139°40'0 0.0
2018-Jun-16 09:59N 35°29' E 139°40'0 0.0
2018-Jun-16 09:29N 35°29' E 139°40'0 0.0
2018-Jun-16 08:59N 35°29' E 139°40'0 0.0
2018-Jun-16 08:29N 35°29' E 139°40'0 0.0
2018-Jun-16 07:59N 35°29' E 139°40'2 3.4
2018-Jun-16 07:30N 35°27' E 139°41'1 2.8
2018-Jun-16 06:59N 35°26' E 139°42'0 0.1
2018-Jun-16 06:28N 35°26' E 139°42'0 0.0
2018-Jun-16 05:59N 35°26' E 139°42'0 0.0
2018-Jun-16 05:28N 35°26' E 139°42'0 0.1
2018-Jun-16 04:58N 35°26' E 139°42'0 0.0
2018-Jun-16 04:29N 35°26' E 139°42'0 0.0
2018-Jun-16 03:58N 35°26' E 139°42'0 0.0
2018-Jun-16 03:29N 35°26' E 139°42'0 0.0
2018-Jun-16 02:59N 35°26' E 139°42'0 0.0
2018-Jun-16 02:29N 35°26' E 139°42'0 0.0
2018-Jun-16 01:58N 35°26' E 139°42'0 0.1
2018-Jun-16 01:29N 35°26' E 139°42'0 0.0
2018-Jun-16 00:59N 35°26' E 139°42'0 0.0
2018-Jun-16 00:28N 35°26' E 139°42'0 0.0
2018-Jun-15 23:58N 35°26' E 139°42'0 0.0
2018-Jun-15 23:26N 35°26' E 139°42'0 0.0
2018-Jun-15 22:59N 35°26' E 139°42'0 0.0
2018-Jun-15 22:26N 35°26' E 139°42'0 0.0
2018-Jun-15 21:58N 35°26' E 139°42'0 0.0
2018-Jun-15 21:28N 35°26' E 139°42'0 0.0
2018-Jun-15 20:58N 35°26' E 139°42'0 0.0
2018-Jun-15 20:29N 35°26' E 139°42'0 0.0
2018-Jun-15 19:58N 35°26' E 139°42'0 0.0
2018-Jun-15 19:29N 35°26' E 139°42'0 0.0
2018-Jun-15 18:58N 35°26' E 139°42'0 0.6
2018-Jun-15 18:30N 35°26' E 139°42'510.9
2018-Jun-15 18:00N 35°20' E 139°43'611.3
2018-Jun-15 17:30N 35°15' E 139°47'510.8
2018-Jun-15 17:00N 35°10' E 139°46'245 9.9
2018-Jun-14 16:13N 33°49' E 135°05'413.4
2018-Jun-14 15:57N 33°52' E 135°02'612.6
2018-Jun-14 15:30N 33°57' E 135°01'612.4
2018-Jun-14 15:00N 34°04' E 134°60'612.0
2018-Jun-14 14:30N 34°10' E 134°59'611.9
2018-Jun-14 14:00N 34°15' E 134°59'510.1
2018-Jun-14 13:30N 34°21' E 134°59'510.1
2018-Jun-14 13:00N 34°25' E 135°01'611.5
2018-Jun-14 12:30N 34°31' E 135°02'5 9.4
2018-Jun-14 12:00N 34°36' E 135°03'4 7.5
2018-Jun-14 11:30N 34°37' E 134°58'4 8.6
2018-Jun-14 11:00N 34°37' E 134°53'1110.4
2018-Jun-14 09:55N 34°40' E 134°40'5 0.2
2018-Jun-13 04:14N 34°44' E 134°35'3 0.1
2018-Jun-12 07:23N 34°45' E 134°39'6 0.3
2018-Jun-11 10:01N 34°42' E 134°32'011.9
2018-Jun-11 10:00N 34°42' E 134°32'713.5
2018-Jun-11 09:27N 34°40' E 134°40'714.4
2018-Jun-11 08:57N 34°39' E 134°49'715.0
2018-Jun-11 08:28N 34°38' E 134°58'614.4
2018-Jun-11 08:01N 34°36' E 135°06'  
Track history (hours):
 
Tides and Currents Weather Stations Pressure Air Temp Water Temp Dewpoint Dewpoint Depression Visibility Wind Speed Wind Dir Waves Ship Positions

Sumise Maru No.32

Last reported at 2018-Jun-21 07:36 UTC. Time now 2018-Jun-21 23:59 UTC.
Position N 34°42' E 134°32'.

Length 78 m; draft 4.3 m.

Type: Cargo ship. MMSI: 431006221.

Date/timePositionNaut miles runAvg speedWind from/ knotsBaromVisibWave heightAir tempDewpointWater temp
2018-Jun-21 07:36N 34°42' E 134°32'212.8
2018-Jun-21 07:29N 34°42' E 134°34'612.9
2018-Jun-21 07:00N 34°40' E 134°41'713.6
2018-Jun-21 06:28N 34°39' E 134°49'714.0
2018-Jun-21 05:59N 34°38' E 134°58'714.0
2018-Jun-21 05:30N 34°36' E 135°06'713.1
2018-Jun-21 05:00N 34°36' E 135°14'611.3
2018-Jun-21 04:30N 34°41' E 135°18'2 3.0
2018-Jun-21 03:52N 34°42' E 135°16'0 0.0
2018-Jun-21 03:28N 34°42' E 135°16'0 0.0
2018-Jun-21 02:58N 34°42' E 135°16'0 0.0
2018-Jun-21 02:28N 34°42' E 135°16'0 0.0
2018-Jun-21 01:58N 34°42' E 135°16'0 0.0
2018-Jun-21 01:28N 34°42' E 135°16'0 0.0
2018-Jun-21 00:52N 34°42' E 135°16'0 0.0
2018-Jun-21 00:28N 34°42' E 135°16'0 0.0
2018-Jun-20 23:52N 34°42' E 135°16'0 0.0
2018-Jun-20 23:28N 34°42' E 135°16'0 0.0
2018-Jun-20 23:00N 34°42' E 135°16'1 2.0
2018-Jun-20 22:30N 34°42' E 135°17'4 8.9
2018-Jun-20 22:00N 34°38' E 135°18'0 0.2
2018-Jun-20 21:30N 34°37' E 135°18'0 0.0
2018-Jun-20 21:00N 34°37' E 135°18'0 0.0
2018-Jun-20 20:30N 34°37' E 135°18'0 0.0
2018-Jun-20 19:48N 34°37' E 135°18'0 0.2
2018-Jun-20 19:30N 34°37' E 135°18'0 0.0
2018-Jun-20 19:00N 34°37' E 135°18'0 0.1
2018-Jun-20 18:30N 34°37' E 135°18'0 0.0
2018-Jun-20 18:00N 34°37' E 135°18'0 0.0
2018-Jun-20 17:30N 34°37' E 135°18'0 0.0
2018-Jun-20 17:00N 34°37' E 135°18'0 0.0
2018-Jun-20 16:27N 34°37' E 135°18'0 0.0
2018-Jun-20 16:00N 34°37' E 135°18'0 0.0
2018-Jun-20 15:30N 34°37' E 135°18'0 0.4
2018-Jun-20 15:00N 34°37' E 135°18'611.5
2018-Jun-20 14:30N 34°35' E 135°11'612.3
2018-Jun-20 14:00N 34°35' E 135°04'711.3
2018-Jun-20 13:25N 34°36' E 134°56'1312.5
2018-Jun-20 12:21N 34°40' E 134°40'12 0.6
2018-Jun-19 16:04N 34°42' E 134°26'113.1
2018-Jun-19 15:58N 34°42' E 134°28'613.3
2018-Jun-19 15:30N 34°41' E 134°35'713.5
2018-Jun-19 14:58N 34°40' E 134°44'714.3
2018-Jun-19 14:30N 34°38' E 134°52'815.0
2018-Jun-19 13:59N 34°37' E 135°01'612.2
2018-Jun-19 13:30N 34°32' E 135°04'714.0
2018-Jun-19 13:00N 34°25' E 135°02'713.8
2018-Jun-19 12:30N 34°19' E 135°00'612.4
2018-Jun-19 12:00N 34°13' E 134°60'713.2
2018-Jun-19 11:30N 34°06' E 135°01'713.6
2018-Jun-19 11:00N 33°59' E 135°02'  
2018-Jun-16 16:23N 35°04' E 139°37'612.9
2018-Jun-16 15:57N 35°08' E 139°42'613.5
2018-Jun-16 15:30N 35°13' E 139°46'713.3
2018-Jun-16 15:00N 35°19' E 139°43'612.9
2018-Jun-16 14:30N 35°25' E 139°43'4 8.0
2018-Jun-16 14:01N 35°29' E 139°40'0 0.1
2018-Jun-16 13:29N 35°29' E 139°40'0 0.0
2018-Jun-16 12:59N 35°29' E 139°40'0 0.0
2018-Jun-16 12:29N 35°29' E 139°40'0 0.0
2018-Jun-16 11:59N 35°29' E 139°40'0 0.0
2018-Jun-16 11:29N 35°29' E 139°40'0 0.0
2018-Jun-16 10:59N 35°29' E 139°40'0 0.0
2018-Jun-16 10:29N 35°29' E 139°40'0 0.0
2018-Jun-16 09:59N 35°29' E 139°40'0 0.0
2018-Jun-16 09:29N 35°29' E 139°40'0 0.0
2018-Jun-16 08:59N 35°29' E 139°40'0 0.0
2018-Jun-16 08:29N 35°29' E 139°40'0 0.0
2018-Jun-16 07:59N 35°29' E 139°40'2 3.4
2018-Jun-16 07:30N 35°27' E 139°41'1 2.8
2018-Jun-16 06:59N 35°26' E 139°42'0 0.1
2018-Jun-16 06:28N 35°26' E 139°42'0 0.0
2018-Jun-16 05:59N 35°26' E 139°42'0 0.0
2018-Jun-16 05:28N 35°26' E 139°42'0 0.1
2018-Jun-16 04:58N 35°26' E 139°42'0 0.0
2018-Jun-16 04:29N 35°26' E 139°42'0 0.0
2018-Jun-16 03:58N 35°26' E 139°42'0 0.0
2018-Jun-16 03:29N 35°26' E 139°42'0 0.0
2018-Jun-16 02:59N 35°26' E 139°42'0 0.0
2018-Jun-16 02:29N 35°26' E 139°42'0 0.0
2018-Jun-16 01:58N 35°26' E 139°42'0 0.1
2018-Jun-16 01:29N 35°26' E 139°42'0 0.0
2018-Jun-16 00:59N 35°26' E 139°42'0 0.0
2018-Jun-16 00:28N 35°26' E 139°42'0 0.0
2018-Jun-15 23:58N 35°26' E 139°42'0 0.0
2018-Jun-15 23:26N 35°26' E 139°42'0 0.0
2018-Jun-15 22:59N 35°26' E 139°42'0 0.0
2018-Jun-15 22:26N 35°26' E 139°42'0 0.0
2018-Jun-15 21:58N 35°26' E 139°42'0 0.0
2018-Jun-15 21:28N 35°26' E 139°42'0 0.0
2018-Jun-15 20:58N 35°26' E 139°42'0 0.0
2018-Jun-15 20:29N 35°26' E 139°42'0 0.0
2018-Jun-15 19:58N 35°26' E 139°42'0 0.0
2018-Jun-15 19:29N 35°26' E 139°42'0 0.0
2018-Jun-15 18:58N 35°26' E 139°42'0 0.6
2018-Jun-15 18:30N 35°26' E 139°42'510.9
2018-Jun-15 18:00N 35°20' E 139°43'611.3
2018-Jun-15 17:30N 35°15' E 139°47'510.8
2018-Jun-15 17:00N 35°10' E 139°46'245 9.9
2018-Jun-14 16:13N 33°49' E 135°05'413.4
2018-Jun-14 15:57N 33°52' E 135°02'612.6
2018-Jun-14 15:30N 33°57' E 135°01'612.4
2018-Jun-14 15:00N 34°04' E 134°60'612.0
2018-Jun-14 14:30N 34°10' E 134°59'611.9
2018-Jun-14 14:00N 34°15' E 134°59'510.1
2018-Jun-14 13:30N 34°21' E 134°59'510.1
2018-Jun-14 13:00N 34°25' E 135°01'611.5
2018-Jun-14 12:30N 34°31' E 135°02'5 9.4
2018-Jun-14 12:00N 34°36' E 135°03'4 7.5
2018-Jun-14 11:30N 34°37' E 134°58'4 8.6
2018-Jun-14 11:00N 34°37' E 134°53'1110.4
2018-Jun-14 09:55N 34°40' E 134°40'5 0.2
2018-Jun-13 04:14N 34°44' E 134°35'3 0.1
2018-Jun-12 07:23N 34°45' E 134°39'6 0.3
2018-Jun-11 10:01N 34°42' E 134°32'011.9
2018-Jun-11 10:00N 34°42' E 134°32'713.5
2018-Jun-11 09:27N 34°40' E 134°40'714.4
2018-Jun-11 08:57N 34°39' E 134°49'715.0
2018-Jun-11 08:28N 34°38' E 134°58'614.4
2018-Jun-11 08:01N 34°36' E 135°06'  

Dump ship's entire track history